sensor_id;sensor_type;location;lat;lon;timestamp;pressure;altitude;pressure_sealevel;temperature;humidity
57594;BME280;43423;46.510;6.686;2022-08-19T00:01:21;96127.13;;;19.02;82.26
57594;BME280;43423;46.510;6.686;2022-08-19T00:03:48;96125.44;;;18.99;82.34
57594;BME280;43423;46.510;6.686;2022-08-19T00:06:14;96130.59;;;18.94;82.38
57594;BME280;43423;46.510;6.686;2022-08-19T00:08:39;96124.69;;;18.98;83.01
57594;BME280;43423;46.510;6.686;2022-08-19T00:11:05;96128.75;;;18.97;82.98
57594;BME280;43423;46.510;6.686;2022-08-19T00:13:31;96129.44;;;18.90;83.54
57594;BME280;43423;46.510;6.686;2022-08-19T00:15:57;96129.44;;;18.90;83.36
57594;BME280;43423;46.510;6.686;2022-08-19T00:18:24;96120.84;;;18.88;83.14
57594;BME280;43423;46.510;6.686;2022-08-19T00:20:49;96114.75;;;18.89;82.79
57594;BME280;43423;46.510;6.686;2022-08-19T00:23:15;96118.97;;;18.83;84.07
57594;BME280;43423;46.510;6.686;2022-08-19T00:25:41;96117.47;;;18.82;83.99
57594;BME280;43423;46.510;6.686;2022-08-19T00:28:06;96115.56;;;18.77;83.73
57594;BME280;43423;46.510;6.686;2022-08-19T00:30:32;96118.03;;;18.80;83.48
57594;BME280;43423;46.510;6.686;2022-08-19T00:32:58;96118.53;;;18.79;83.28
57594;BME280;43423;46.510;6.686;2022-08-19T00:35:24;96116.72;;;18.81;82.75
57594;BME280;43423;46.510;6.686;2022-08-19T00:37:50;96126.38;;;18.80;83.45
57594;BME280;43423;46.510;6.686;2022-08-19T00:40:16;96121.22;;;18.84;83.78
57594;BME280;43423;46.510;6.686;2022-08-19T00:42:43;96124.25;;;18.73;82.82
57594;BME280;43423;46.510;6.686;2022-08-19T00:45:22;96132.94;;;18.69;82.53
57594;BME280;43423;46.510;6.686;2022-08-19T00:47:48;96128.09;;;18.70;83.54
57594;BME280;43423;46.510;6.686;2022-08-19T00:50:17;96125.13;;;18.68;83.89
57594;BME280;43423;46.510;6.686;2022-08-19T00:52:46;96124.25;;;18.60;84.72
57594;BME280;43423;46.510;6.686;2022-08-19T00:55:20;96132.63;;;18.60;85.44
57594;BME280;43423;46.510;6.686;2022-08-19T00:57:51;96144.31;;;18.58;84.98
57594;BME280;43423;46.510;6.686;2022-08-19T01:00:20;96139.78;;;18.55;85.53
57594;BME280;43423;46.510;6.686;2022-08-19T01:02:47;96142.81;;;18.57;86.31
57594;BME280;43423;46.510;6.686;2022-08-19T01:05:16;96146.00;;;18.61;87.48
57594;BME280;43423;46.510;6.686;2022-08-19T01:07:44;96145.72;;;18.52;87.67
57594;BME280;43423;46.510;6.686;2022-08-19T01:10:15;96140.97;;;18.60;87.87
57594;BME280;43423;46.510;6.686;2022-08-19T01:12:40;96155.66;;;18.60;88.81
57594;BME280;43423;46.510;6.686;2022-08-19T01:15:09;96154.69;;;18.58;89.48
57594;BME280;43423;46.510;6.686;2022-08-19T01:17:36;96156.09;;;18.51;87.32
57594;BME280;43423;46.510;6.686;2022-08-19T01:20:05;96149.88;;;18.58;86.11
57594;BME280;43423;46.510;6.686;2022-08-19T01:25:07;96158.00;;;18.56;85.06
57594;BME280;43423;46.510;6.686;2022-08-19T01:27:40;96149.13;;;18.58;85.01
57594;BME280;43423;46.510;6.686;2022-08-19T01:30:07;96148.97;;;18.63;81.62
57594;BME280;43423;46.510;6.686;2022-08-19T01:32:33;96149.44;;;18.54;82.45
57594;BME280;43423;46.510;6.686;2022-08-19T01:34:58;96151.28;;;18.52;82.30
57594;BME280;43423;46.510;6.686;2022-08-19T01:37:27;96144.31;;;18.45;83.23
57594;BME280;43423;46.510;6.686;2022-08-19T01:39:52;96145.41;;;18.42;83.47
57594;BME280;43423;46.510;6.686;2022-08-19T01:42:18;96146.91;;;18.43;84.29
57594;BME280;43423;46.510;6.686;2022-08-19T01:44:45;96141.88;;;18.41;84.94
57594;BME280;43423;46.510;6.686;2022-08-19T01:47:10;96154.00;;;18.31;86.69
57594;BME280;43423;46.510;6.686;2022-08-19T01:49:36;96138.56;;;18.30;86.74
57594;BME280;43423;46.510;6.686;2022-08-19T01:52:04;96135.16;;;18.24;87.53
57594;BME280;43423;46.510;6.686;2022-08-19T01:54:30;96138.59;;;18.17;87.43
57594;BME280;43423;46.510;6.686;2022-08-19T01:57:03;96139.56;;;18.19;85.62
57594;BME280;43423;46.510;6.686;2022-08-19T01:59:29;96138.19;;;18.12;87.02
57594;BME280;43423;46.510;6.686;2022-08-19T02:01:56;96128.22;;;18.17;88.73
57594;BME280;43423;46.510;6.686;2022-08-19T02:04:21;96133.56;;;18.15;89.23
57594;BME280;43423;46.510;6.686;2022-08-19T02:06:48;96141.38;;;18.17;89.01
57594;BME280;43423;46.510;6.686;2022-08-19T02:09:14;96135.69;;;18.22;88.91
57594;BME280;43423;46.510;6.686;2022-08-19T02:11:41;96140.41;;;18.27;87.80
57594;BME280;43423;46.510;6.686;2022-08-19T02:14:07;96139.78;;;18.21;87.31
57594;BME280;43423;46.510;6.686;2022-08-19T02:16:33;96147.16;;;18.19;88.04
57594;BME280;43423;46.510;6.686;2022-08-19T02:18:59;96152.94;;;18.07;88.70
57594;BME280;43423;46.510;6.686;2022-08-19T02:21:28;96157.22;;;18.08;88.35
57594;BME280;43423;46.510;6.686;2022-08-19T02:23:54;96150.69;;;18.06;89.03
57594;BME280;43423;46.510;6.686;2022-08-19T02:26:21;96159.25;;;18.08;89.07
57594;BME280;43423;46.510;6.686;2022-08-19T02:28:47;96158.41;;;18.00;89.19
57594;BME280;43423;46.510;6.686;2022-08-19T02:31:19;96169.31;;;17.98;89.58
57594;BME280;43423;46.510;6.686;2022-08-19T02:33:46;96182.94;;;18.01;90.14
57594;BME280;43423;46.510;6.686;2022-08-19T02:36:13;96181.41;;;18.00;90.12
57594;BME280;43423;46.510;6.686;2022-08-19T02:38:39;96179.91;;;17.99;89.85
57594;BME280;43423;46.510;6.686;2022-08-19T02:41:11;96182.47;;;17.97;89.35
57594;BME280;43423;46.510;6.686;2022-08-19T02:43:37;96186.47;;;18.02;89.36
57594;BME280;43423;46.510;6.686;2022-08-19T02:46:24;96190.28;;;17.99;90.13
57594;BME280;43423;46.510;6.686;2022-08-19T02:48:53;96198.44;;;17.97;90.13
57594;BME280;43423;46.510;6.686;2022-08-19T02:51:26;96197.69;;;17.96;89.61
57594;BME280;43423;46.510;6.686;2022-08-19T02:53:52;96213.28;;;17.99;89.97
57594;BME280;43423;46.510;6.686;2022-08-19T02:56:18;96201.75;;;17.95;89.30
57594;BME280;43423;46.510;6.686;2022-08-19T02:58:45;96201.00;;;17.95;89.76
57594;BME280;43423;46.510;6.686;2022-08-19T03:01:20;96197.69;;;17.96;89.47
57594;BME280;43423;46.510;6.686;2022-08-19T03:03:46;96197.22;;;17.92;88.89
57594;BME280;43423;46.510;6.686;2022-08-19T03:06:14;96204.31;;;17.93;89.03
57594;BME280;43423;46.510;6.686;2022-08-19T03:08:42;96196.81;;;17.88;89.14
57594;BME280;43423;46.510;6.686;2022-08-19T03:11:26;96197.44;;;17.81;88.76
57594;BME280;43423;46.510;6.686;2022-08-19T03:13:52;96198.94;;;17.82;89.17
57594;BME280;43423;46.510;6.686;2022-08-19T03:16:20;96209.66;;;17.78;90.24
57594;BME280;43423;46.510;6.686;2022-08-19T03:18:46;96201.53;;;17.80;90.24
57594;BME280;43423;46.510;6.686;2022-08-19T03:21:17;96204.97;;;17.86;90.53
57594;BME280;43423;46.510;6.686;2022-08-19T03:23:42;96212.44;;;17.78;91.01
57594;BME280;43423;46.510;6.686;2022-08-19T03:26:08;96216.38;;;17.82;90.76
57594;BME280;43423;46.510;6.686;2022-08-19T03:28:33;96214.25;;;17.89;90.18
57594;BME280;43423;46.510;6.686;2022-08-19T03:31:05;96210.09;;;17.95;89.96
57594;BME280;43423;46.510;6.686;2022-08-19T03:33:33;96209.34;;;17.95;89.05
57594;BME280;43423;46.510;6.686;2022-08-19T03:36:05;96206.22;;;17.98;88.28
57594;BME280;43423;46.510;6.686;2022-08-19T03:38:33;96203.25;;;17.96;88.19
57594;BME280;43423;46.510;6.686;2022-08-19T03:41:03;96207.72;;;17.99;88.25
57594;BME280;43423;46.510;6.686;2022-08-19T03:43:28;96206.22;;;17.98;88.64
57594;BME280;43423;46.510;6.686;2022-08-19T03:46:12;96204.75;;;17.97;89.55
57594;BME280;43423;46.510;6.686;2022-08-19T03:48:40;96208.34;;;17.92;89.30
57594;BME280;43423;46.510;6.686;2022-08-19T03:51:07;96212.22;;;17.89;90.49
57594;BME280;43423;46.510;6.686;2022-08-19T03:53:34;96216.09;;;17.86;91.41
57594;BME280;43423;46.510;6.686;2022-08-19T03:56:01;96222.69;;;17.83;91.29
57594;BME280;43423;46.510;6.686;2022-08-19T03:58:28;96223.09;;;17.74;91.13
57594;BME280;43423;46.510;6.686;2022-08-19T04:00:57;96231.38;;;17.79;91.98
57594;BME280;43423;46.510;6.686;2022-08-19T04:03:24;96231.16;;;17.77;91.74
57594;BME280;43423;46.510;6.686;2022-08-19T04:05:52;96236.47;;;17.75;91.94
57594;BME280;43423;46.510;6.686;2022-08-19T04:08:19;96232.94;;;17.75;92.21
57594;BME280;43423;46.510;6.686;2022-08-19T04:10:48;96232.19;;;17.74;92.21
57594;BME280;43423;46.510;6.686;2022-08-19T04:13:15;96236.81;;;17.72;92.34
57594;BME280;43423;46.510;6.686;2022-08-19T04:15:43;96238.09;;;17.71;92.69
57594;BME280;43423;46.510;6.686;2022-08-19T04:18:12;96246.44;;;17.71;92.07
57594;BME280;43423;46.510;6.686;2022-08-19T04:20:42;96242.56;;;17.74;91.74
57594;BME280;43423;46.510;6.686;2022-08-19T04:23:08;96237.22;;;17.76;91.76
57594;BME280;43423;46.510;6.686;2022-08-19T04:25:38;96247.06;;;17.77;91.60
57594;BME280;43423;46.510;6.686;2022-08-19T04:28:05;96244.28;;;17.77;92.07
57594;BME280;43423;46.510;6.686;2022-08-19T04:30:30;96251.66;;;17.74;91.84
57594;BME280;43423;46.510;6.686;2022-08-19T04:32:56;96252.19;;;17.73;91.74
57594;BME280;43423;46.510;6.686;2022-08-19T04:35:21;96256.25;;;17.72;91.98
57594;BME280;43423;46.510;6.686;2022-08-19T04:37:47;96255.94;;;17.75;92.22
57594;BME280;43423;46.510;6.686;2022-08-19T04:40:13;96252.94;;;17.73;92.73
57594;BME280;43423;46.510;6.686;2022-08-19T04:42:57;96259.25;;;17.74;93.11
57594;BME280;43423;46.510;6.686;2022-08-19T04:45:22;96260.75;;;17.75;93.11
57594;BME280;43423;46.510;6.686;2022-08-19T04:47:48;96263.97;;;17.79;93.48
57594;BME280;43423;46.510;6.686;2022-08-19T04:50:14;96258.31;;;17.71;93.87
57594;BME280;43423;46.510;6.686;2022-08-19T04:52:40;96264.81;;;17.74;93.98
57594;BME280;43423;46.510;6.686;2022-08-19T04:55:09;96272.19;;;17.71;93.91
57594;BME280;43423;46.510;6.686;2022-08-19T04:57:36;96273.16;;;17.74;94.27
57594;BME280;43423;46.510;6.686;2022-08-19T05:00:05;96272.19;;;17.71;94.05
57594;BME280;43423;46.510;6.686;2022-08-19T05:02:30;96278.50;;;17.72;93.91
57594;BME280;43423;46.510;6.686;2022-08-19T05:04:57;96278.72;;;17.74;93.08
57594;BME280;43423;46.510;6.686;2022-08-19T05:07:24;96284.06;;;17.72;92.36
57594;BME280;43423;46.510;6.686;2022-08-19T05:09:49;96293.09;;;17.78;93.00
57594;BME280;43423;46.510;6.686;2022-08-19T05:12:14;96291.34;;;17.75;93.20
57594;BME280;43423;46.510;6.686;2022-08-19T05:14:40;96290.66;;;17.69;93.51
57594;BME280;43423;46.510;6.686;2022-08-19T05:17:06;96295.94;;;17.72;93.38
57594;BME280;43423;46.510;6.686;2022-08-19T05:19:31;96296.69;;;17.73;93.73
57594;BME280;43423;46.510;6.686;2022-08-19T05:22:15;96297.50;;;17.68;93.65
57594;BME280;43423;46.510;6.686;2022-08-19T05:25:04;96289.16;;;17.68;94.30
57594;BME280;43423;46.510;6.686;2022-08-19T05:27:30;96303.97;;;17.76;94.19
57594;BME280;43423;46.510;6.686;2022-08-19T05:29:56;96303.97;;;17.76;95.19
57594;BME280;43423;46.510;6.686;2022-08-19T05:32:21;96309.63;;;17.70;95.57
57594;BME280;43423;46.510;6.686;2022-08-19T05:34:49;96310.72;;;17.80;94.93
57594;BME280;43423;46.510;6.686;2022-08-19T05:37:14;96308.25;;;17.77;95.07
57594;BME280;43423;46.510;6.686;2022-08-19T05:39:40;96320.25;;;17.85;94.94
57594;BME280;43423;46.510;6.686;2022-08-19T05:42:08;96315.00;;;17.81;95.04
57594;BME280;43423;46.510;6.686;2022-08-19T05:44:37;96320.03;;;17.83;95.04
57594;BME280;43423;46.510;6.686;2022-08-19T05:47:06;96327.09;;;17.84;94.33
57594;BME280;43423;46.510;6.686;2022-08-19T05:49:34;96319.72;;;17.87;94.31
57594;BME280;43423;46.510;6.686;2022-08-19T05:52:07;96320.03;;;17.83;94.14
57594;BME280;43423;46.510;6.686;2022-08-19T05:54:33;96321.03;;;17.85;94.54
57594;BME280;43423;46.510;6.686;2022-08-19T05:57:00;96325.81;;;17.85;94.17
57594;BME280;43423;46.510;6.686;2022-08-19T05:59:26;96322.59;;;17.81;93.89
57594;BME280;43423;46.510;6.686;2022-08-19T06:01:52;96315.75;;;17.82;93.49
57594;BME280;43423;46.510;6.686;2022-08-19T06:04:20;96329.78;;;17.90;93.59
57594;BME280;43423;46.510;6.686;2022-08-19T06:06:52;96330.53;;;17.90;93.52
57594;BME280;43423;46.510;6.686;2022-08-19T06:09:18;96341.03;;;17.97;93.08
57594;BME280;43423;46.510;6.686;2022-08-19T06:11:47;96339.47;;;18.02;92.08
57594;BME280;43423;46.510;6.686;2022-08-19T06:14:17;96355.16;;;17.99;92.00
57594;BME280;43423;46.510;6.686;2022-08-19T06:16:44;96346.59;;;17.97;91.93
57594;BME280;43423;46.510;6.686;2022-08-19T06:19:16;96354.53;;;17.93;91.95
57594;BME280;43423;46.510;6.686;2022-08-19T06:21:44;96354.75;;;17.95;91.97
57594;BME280;43423;46.510;6.686;2022-08-19T06:24:16;96356.44;;;17.98;91.69
57594;BME280;43423;46.510;6.686;2022-08-19T06:26:44;96367.56;;;17.98;92.09
57594;BME280;43423;46.510;6.686;2022-08-19T06:29:12;96366.53;;;18.01;91.23
57594;BME280;43423;46.510;6.686;2022-08-19T06:31:41;96369.19;;;17.94;91.77
57594;BME280;43423;46.510;6.686;2022-08-19T06:34:07;96369.63;;;17.98;91.85
57594;BME280;43423;46.510;6.686;2022-08-19T06:36:36;96372.41;;;17.98;91.49
57594;BME280;43423;46.510;6.686;2022-08-19T06:39:04;96375.63;;;18.02;91.65
57594;BME280;43423;46.510;6.686;2022-08-19T06:41:30;96384.41;;;18.06;91.57
57594;BME280;43423;46.510;6.686;2022-08-19T06:43:56;96379.84;;;17.90;92.62
57594;BME280;43423;46.510;6.686;2022-08-19T06:46:22;96385.28;;;17.82;92.34
57594;BME280;43423;46.510;6.686;2022-08-19T06:48:48;96383.13;;;17.75;93.28
57594;BME280;43423;46.510;6.686;2022-08-19T06:51:16;96385.34;;;17.76;93.66
57594;BME280;43423;46.510;6.686;2022-08-19T06:53:51;96398.66;;;17.83;93.59
57594;BME280;43423;46.510;6.686;2022-08-19T06:56:24;96392.19;;;17.75;93.80
57594;BME280;43423;46.510;6.686;2022-08-19T06:58:51;96398.91;;;17.85;93.65
57594;BME280;43423;46.510;6.686;2022-08-19T07:01:18;96402.84;;;17.90;93.62
57594;BME280;43423;46.510;6.686;2022-08-19T07:03:43;96404.13;;;17.89;93.63
57594;BME280;43423;46.510;6.686;2022-08-19T07:06:12;96403.94;;;17.87;93.97
57594;BME280;43423;46.510;6.686;2022-08-19T07:08:40;96408.06;;;17.80;93.42
57594;BME280;43423;46.510;6.686;2022-08-19T07:11:07;96410.25;;;17.88;93.57
57594;BME280;43423;46.510;6.686;2022-08-19T07:13:34;96412.88;;;17.80;93.81
57594;BME280;43423;46.510;6.686;2022-08-19T07:16:11;96417.59;;;17.85;94.54
57594;BME280;43423;46.510;6.686;2022-08-19T07:18:38;96414.53;;;17.89;94.21
57594;BME280;43423;46.510;6.686;2022-08-19T07:21:14;96417.50;;;17.91;94.78
57594;BME280;43423;46.510;6.686;2022-08-19T07:23:41;96422.31;;;17.90;94.40
57594;BME280;43423;46.510;6.686;2022-08-19T07:26:18;96418.22;;;17.78;94.13
57594;BME280;43423;46.510;6.686;2022-08-19T07:28:46;96421.97;;;17.80;94.72
57594;BME280;43423;46.510;6.686;2022-08-19T07:31:18;96424.16;;;17.88;94.37
57594;BME280;43423;46.510;6.686;2022-08-19T07:33:45;96421.91;;;17.86;93.89
57594;BME280;43423;46.510;6.686;2022-08-19T07:36:14;96424.81;;;17.94;93.85
57594;BME280;43423;46.510;6.686;2022-08-19T07:38:45;96428.25;;;18.00;93.25
57594;BME280;43423;46.510;6.686;2022-08-19T07:41:15;96424.97;;;18.01;92.60
57594;BME280;43423;46.510;6.686;2022-08-19T07:43:41;96427.81;;;17.96;93.36
57594;BME280;43423;46.510;6.686;2022-08-19T07:46:10;96430.84;;;17.79;92.11
57594;BME280;43423;46.510;6.686;2022-08-19T07:48:35;96431.88;;;17.76;93.74
57594;BME280;43423;46.510;6.686;2022-08-19T07:51:04;96427.59;;;17.75;94.33
57594;BME280;43423;46.510;6.686;2022-08-19T07:53:31;96433.09;;;17.80;93.31
57594;BME280;43423;46.510;6.686;2022-08-19T07:56:01;96434.66;;;17.76;93.16
57594;BME280;43423;46.510;6.686;2022-08-19T07:58:28;96434.66;;;17.76;93.86
57594;BME280;43423;46.510;6.686;2022-08-19T08:00:53;96431.22;;;17.89;93.00
57594;BME280;43423;46.510;6.686;2022-08-19T08:03:20;96433.81;;;18.00;92.99
57594;BME280;43423;46.510;6.686;2022-08-19T08:06:06;96442.91;;;18.00;92.64
57594;BME280;43423;46.510;6.686;2022-08-19T08:08:51;96452.38;;;18.10;92.03
57594;BME280;43423;46.510;6.686;2022-08-19T08:11:35;96444.03;;;18.10;92.79
57594;BME280;43423;46.510;6.686;2022-08-19T08:14:01;96445.75;;;18.13;92.37
57594;BME280;43423;46.510;6.686;2022-08-19T08:16:27;96448.25;;;18.17;91.83
57594;BME280;43423;46.510;6.686;2022-08-19T08:18:56;96457.56;;;18.20;91.42
57594;BME280;43423;46.510;6.686;2022-08-19T08:21:22;96441.91;;;18.17;91.33
57594;BME280;43423;46.510;6.686;2022-08-19T08:23:47;96451.78;;;18.18;91.97
57594;BME280;43423;46.510;6.686;2022-08-19T08:26:13;96453.28;;;18.19;92.13
57594;BME280;43423;46.510;6.686;2022-08-19T08:28:40;96457.75;;;18.22;92.92
57594;BME280;43423;46.510;6.686;2022-08-19T08:31:05;96449.00;;;18.18;92.34
57594;BME280;43423;46.510;6.686;2022-08-19T08:33:31;96453.28;;;18.19;91.64
57594;BME280;43423;46.510;6.686;2022-08-19T08:35:56;96458.69;;;18.11;92.00
57594;BME280;43423;46.510;6.686;2022-08-19T08:38:22;96460.63;;;18.16;92.07
57594;BME280;43423;46.510;6.686;2022-08-19T08:40:50;96465.59;;;18.23;92.17
57594;BME280;43423;46.510;6.686;2022-08-19T08:43:37;96468.28;;;18.29;91.87
57594;BME280;43423;46.510;6.686;2022-08-19T08:46:07;96467.75;;;18.30;92.54
57594;BME280;43423;46.510;6.686;2022-08-19T08:49:02;96471.28;;;18.31;91.86
57594;BME280;43423;46.510;6.686;2022-08-19T08:51:44;96472.50;;;18.17;89.90
57594;BME280;43423;46.510;6.686;2022-08-19T08:54:14;96475.41;;;18.11;90.52
57594;BME280;43423;46.510;6.686;2022-08-19T08:56:44;96483.22;;;18.12;90.99
57594;BME280;43423;46.510;6.686;2022-08-19T08:59:28;96483.88;;;18.19;92.97
57594;BME280;43423;46.510;6.686;2022-08-19T09:01:58;96481.31;;;18.21;93.20
57594;BME280;43423;46.510;6.686;2022-08-19T09:04:24;96468.75;;;18.14;90.50
57594;BME280;43423;46.510;6.686;2022-08-19T09:06:57;96480.50;;;18.26;91.26
57594;BME280;43423;46.510;6.686;2022-08-19T09:09:40;96490.69;;;18.36;91.77
57594;BME280;43423;46.510;6.686;2022-08-19T09:15:13;96493.69;;;18.38;90.83
57594;BME280;43423;46.510;6.686;2022-08-19T09:17:39;96499.09;;;18.50;91.48
57594;BME280;43423;46.510;6.686;2022-08-19T09:22:33;96491.25;;;18.48;91.60
57594;BME280;43423;46.510;6.686;2022-08-19T09:24:59;96506.72;;;18.62;90.56
57594;BME280;43423;46.510;6.686;2022-08-19T09:27:26;96505.75;;;18.60;89.83
57594;BME280;43423;46.510;6.686;2022-08-19T09:29:53;96507.94;;;18.48;88.80
57594;BME280;43423;46.510;6.686;2022-08-19T09:32:20;96500.75;;;18.39;86.61
57594;BME280;43423;46.510;6.686;2022-08-19T09:34:46;96509.34;;;18.41;86.49
57594;BME280;43423;46.510;6.686;2022-08-19T09:37:12;96516.09;;;18.46;87.33
57594;BME280;43423;46.510;6.686;2022-08-19T09:39:39;96520.63;;;18.49;87.69
57594;BME280;43423;46.510;6.686;2022-08-19T09:42:06;96525.13;;;18.52;87.97
57594;BME280;43423;46.510;6.686;2022-08-19T09:44:37;96528.56;;;18.58;89.39
57594;BME280;43423;46.510;6.686;2022-08-19T09:47:03;96528.72;;;18.66;89.54
57594;BME280;43423;46.510;6.686;2022-08-19T09:49:29;96536.47;;;18.54;87.58
57594;BME280;43423;46.510;6.686;2022-08-19T09:51:56;96535.38;;;18.44;88.87
57594;BME280;43423;46.510;6.686;2022-08-19T09:54:23;96528.91;;;18.36;90.50
57594;BME280;43423;46.510;6.686;2022-08-19T09:56:49;96527.97;;;18.47;91.51
57594;BME280;43423;46.510;6.686;2022-08-19T09:59:15;96535.63;;;18.59;90.50
57594;BME280;43423;46.510;6.686;2022-08-19T10:01:41;96530.81;;;18.60;91.81
57594;BME280;43423;46.510;6.686;2022-08-19T10:04:06;96535.84;;;18.61;90.63
57594;BME280;43423;46.510;6.686;2022-08-19T10:06:37;96536.34;;;18.65;90.00
57594;BME280;43423;46.510;6.686;2022-08-19T10:09:04;96544.75;;;18.60;88.64
57594;BME280;43423;46.510;6.686;2022-08-19T10:11:32;96532.53;;;18.63;89.09
57594;BME280;43423;46.510;6.686;2022-08-19T10:13:58;96542.50;;;18.58;88.56
57594;BME280;43423;46.510;6.686;2022-08-19T10:16:24;96540.88;;;18.63;90.37
57594;BME280;43423;46.510;6.686;2022-08-19T10:18:51;96546.75;;;18.78;90.49
57594;BME280;43423;46.510;6.686;2022-08-19T10:21:22;96542.16;;;18.81;89.27
57594;BME280;43423;46.510;6.686;2022-08-19T10:23:50;96544.31;;;18.88;89.46
57594;BME280;43423;46.510;6.686;2022-08-19T10:26:19;96542.19;;;18.94;89.17
57594;BME280;43423;46.510;6.686;2022-08-19T10:28:45;96539.09;;;18.98;89.25
57594;BME280;43423;46.510;6.686;2022-08-19T10:31:17;96533.41;;;19.03;88.86
57594;BME280;43423;46.510;6.686;2022-08-19T10:33:46;96533.53;;;19.11;88.47
57594;BME280;43423;46.510;6.686;2022-08-19T10:36:18;96544.66;;;18.98;85.61
57594;BME280;43423;46.510;6.686;2022-08-19T10:38:46;96547.25;;;19.09;86.77
57594;BME280;43423;46.510;6.686;2022-08-19T10:41:18;96553.16;;;19.05;85.59
57594;BME280;43423;46.510;6.686;2022-08-19T10:43:44;96554.03;;;19.13;86.77
57594;BME280;43423;46.510;6.686;2022-08-19T10:46:13;96548.66;;;19.15;86.48
57594;BME280;43423;46.510;6.686;2022-08-19T10:48:39;96538.69;;;19.07;85.71
57594;BME280;43423;46.510;6.686;2022-08-19T10:51:05;96547.88;;;19.02;83.04
57594;BME280;43423;46.510;6.686;2022-08-19T10:53:50;96534.47;;;19.00;84.59
57594;BME280;43423;46.510;6.686;2022-08-19T10:56:16;96547.56;;;19.05;86.56
57594;BME280;43423;46.510;6.686;2022-08-19T10:59:01;96551.13;;;19.06;86.08
57594;BME280;43423;46.510;6.686;2022-08-19T11:01:29;96551.78;;;19.12;87.25
57594;BME280;43423;46.510;6.686;2022-08-19T11:03:56;96558.72;;;19.18;85.94
57594;BME280;43423;46.510;6.686;2022-08-19T11:06:25;96552.09;;;19.21;85.74
57594;BME280;43423;46.510;6.686;2022-08-19T11:08:52;96551.22;;;19.27;85.09
57594;BME280;43423;46.510;6.686;2022-08-19T11:11:17;96547.56;;;19.18;85.76
57594;BME280;43423;46.510;6.686;2022-08-19T11:13:43;96547.38;;;19.16;85.27
57594;BME280;43423;46.510;6.686;2022-08-19T11:16:13;96549.72;;;19.25;86.27
57594;BME280;43423;46.510;6.686;2022-08-19T11:18:44;96557.88;;;19.23;85.21
57594;BME280;43423;46.510;6.686;2022-08-19T11:21:16;96546.81;;;19.18;84.72
57594;BME280;43423;46.510;6.686;2022-08-19T11:23:43;96556.19;;;19.20;85.79
57594;BME280;43423;46.510;6.686;2022-08-19T11:26:08;96549.63;;;19.18;84.91
57594;BME280;43423;46.510;6.686;2022-08-19T11:28:35;96549.50;;;19.10;83.58
57594;BME280;43423;46.510;6.686;2022-08-19T11:31:01;96560.34;;;19.14;84.61
57594;BME280;43423;46.510;6.686;2022-08-19T11:33:31;96560.56;;;19.16;84.35
57594;BME280;43423;46.510;6.686;2022-08-19T11:35:58;96558.19;;;19.07;84.16
57594;BME280;43423;46.510;6.686;2022-08-19T11:38:25;96557.00;;;19.15;84.77
57594;BME280;43423;46.510;6.686;2022-08-19T11:40:59;96573.09;;;19.22;85.71
57594;BME280;43423;46.510;6.686;2022-08-19T11:43:26;96578.72;;;19.36;86.25
57594;BME280;43423;46.510;6.686;2022-08-19T11:45:55;96572.25;;;19.41;85.57
57594;BME280;43423;46.510;6.686;2022-08-19T11:48:21;96566.81;;;19.48;84.57
57594;BME280;43423;46.510;6.686;2022-08-19T11:50:49;96571.66;;;19.61;84.99
57594;BME280;43423;46.510;6.686;2022-08-19T11:53:15;96575.72;;;19.73;84.48
57594;BME280;43423;46.510;6.686;2022-08-19T11:55:41;96577.66;;;19.78;83.61
57594;BME280;43423;46.510;6.686;2022-08-19T11:58:08;96582.59;;;19.86;82.98
57594;BME280;43423;46.510;6.686;2022-08-19T12:00:34;96573.78;;;19.82;83.02
57594;BME280;43423;46.510;6.686;2022-08-19T12:03:02;96576.69;;;19.89;83.15
57594;BME280;43423;46.510;6.686;2022-08-19T12:05:28;96574.03;;;19.84;80.80
57594;BME280;43423;46.510;6.686;2022-08-19T12:07:53;96575.63;;;19.79;81.49
57594;BME280;43423;46.510;6.686;2022-08-19T12:10:20;96567.25;;;19.79;81.75
57594;BME280;43423;46.510;6.686;2022-08-19T12:12:46;96567.34;;;19.73;80.13
57594;BME280;43423;46.510;6.686;2022-08-19T12:15:12;96568.88;;;19.61;79.83
57594;BME280;43423;46.510;6.686;2022-08-19T12:17:40;96567.88;;;19.59;79.55
57594;BME280;43423;46.510;6.686;2022-08-19T12:20:09;96562.09;;;19.57;80.21
57594;BME280;43423;46.510;6.686;2022-08-19T12:22:37;96563.38;;;19.56;80.17
57594;BME280;43423;46.510;6.686;2022-08-19T12:25:04;96571.47;;;19.59;79.77
57594;BME280;43423;46.510;6.686;2022-08-19T12:27:30;96569.94;;;19.58;80.48
57594;BME280;43423;46.510;6.686;2022-08-19T12:29:56;96565.09;;;19.59;79.79
57594;BME280;43423;46.510;6.686;2022-08-19T12:32:22;96568.84;;;19.48;79.70
57594;BME280;43423;46.510;6.686;2022-08-19T12:34:50;96570.53;;;19.51;79.76
57594;BME280;43423;46.510;6.686;2022-08-19T12:37:15;96568.34;;;19.63;82.82
57594;BME280;43423;46.510;6.686;2022-08-19T12:39:42;96569.09;;;19.63;80.32
57594;BME280;43423;46.510;6.686;2022-08-19T12:42:10;96571.97;;;19.58;77.92
57594;BME280;43423;46.510;6.686;2022-08-19T12:44:38;96581.63;;;19.57;78.13
57594;BME280;43423;46.510;6.686;2022-08-19T12:47:05;96579.59;;;19.57;79.83
57594;BME280;43423;46.510;6.686;2022-08-19T12:49:32;96584.63;;;19.59;78.38
57594;BME280;43423;46.510;6.686;2022-08-19T12:52:00;96583.69;;;19.69;79.73
57594;BME280;43423;46.510;6.686;2022-08-19T12:54:26;96579.59;;;19.70;78.75
57594;BME280;43423;46.510;6.686;2022-08-19T12:56:52;96568.22;;;19.82;80.72
57594;BME280;43423;46.510;6.686;2022-08-19T12:59:17;96582.25;;;19.89;79.24
57594;BME280;43423;46.510;6.686;2022-08-19T13:01:44;96579.16;;;19.93;78.16
57594;BME280;43423;46.510;6.686;2022-08-19T13:04:10;96584.41;;;19.96;78.27
57594;BME280;43423;46.510;6.686;2022-08-19T13:06:36;96575.91;;;20.02;78.79
57594;BME280;43423;46.510;6.686;2022-08-19T13:09:03;96580.84;;;20.09;77.27
57594;BME280;43423;46.510;6.686;2022-08-19T13:11:29;96577.16;;;20.14;76.87
57594;BME280;43423;46.510;6.686;2022-08-19T13:13:58;96585.63;;;20.22;76.98